sensor_id;sensor_type;location;lat;lon;timestamp;P1;durP1;ratioP1;P2;durP2;ratioP2
21326;SDS011;10822;51.532;6.770;2023-04-24T00:00:54;2.50;;;1.42;;
21326;SDS011;10822;51.532;6.770;2023-04-24T00:03:22;3.08;;;1.10;;
21326;SDS011;10822;51.532;6.770;2023-04-24T00:05:47;6.53;;;1.70;;
21326;SDS011;10822;51.532;6.770;2023-04-24T00:08:14;4.75;;;2.03;;
21326;SDS011;10822;51.532;6.770;2023-04-24T00:10:40;4.57;;;1.80;;
21326;SDS011;10822;51.532;6.770;2023-04-24T00:13:06;4.65;;;2.00;;
21326;SDS011;10822;51.532;6.770;2023-04-24T00:15:32;4.57;;;2.50;;
21326;SDS011;10822;51.532;6.770;2023-04-24T00:17:58;4.07;;;2.38;;
21326;SDS011;10822;51.532;6.770;2023-04-24T00:20:26;5.20;;;2.00;;
21326;SDS011;10822;51.532;6.770;2023-04-24T00:22:53;4.07;;;2.60;;
21326;SDS011;10822;51.532;6.770;2023-04-24T00:25:19;3.05;;;1.80;;
21326;SDS011;10822;51.532;6.770;2023-04-24T00:27:45;3.78;;;1.88;;
21326;SDS011;10822;51.532;6.770;2023-04-24T00:30:11;5.97;;;2.88;;
21326;SDS011;10822;51.532;6.770;2023-04-24T00:32:37;4.90;;;2.97;;
21326;SDS011;10822;51.532;6.770;2023-04-24T00:35:03;6.13;;;2.70;;
21326;SDS011;10822;51.532;6.770;2023-04-24T00:37:29;4.90;;;2.20;;
21326;SDS011;10822;51.532;6.770;2023-04-24T00:39:55;3.40;;;1.92;;
21326;SDS011;10822;51.532;6.770;2023-04-24T00:42:21;4.43;;;2.60;;
21326;SDS011;10822;51.532;6.770;2023-04-24T00:44:47;5.75;;;2.80;;
21326;SDS011;10822;51.532;6.770;2023-04-24T00:47:13;6.70;;;3.10;;
21326;SDS011;10822;51.532;6.770;2023-04-24T00:49:39;3.80;;;2.67;;
21326;SDS011;10822;51.532;6.770;2023-04-24T00:52:05;4.07;;;2.90;;
21326;SDS011;10822;51.532;6.770;2023-04-24T00:54:33;5.38;;;2.53;;
21326;SDS011;10822;51.532;6.770;2023-04-24T00:56:59;5.43;;;2.63;;
21326;SDS011;10822;51.532;6.770;2023-04-24T00:59:26;5.93;;;2.97;;
21326;SDS011;10822;51.532;6.770;2023-04-24T01:01:52;4.80;;;3.05;;
21326;SDS011;10822;51.532;6.770;2023-04-24T01:04:18;4.00;;;2.72;;
21326;SDS011;10822;51.532;6.770;2023-04-24T01:06:45;4.28;;;3.22;;
21326;SDS011;10822;51.532;6.770;2023-04-24T01:09:11;7.15;;;4.47;;
21326;SDS011;10822;51.532;6.770;2023-04-24T01:11:39;9.35;;;4.60;;
21326;SDS011;10822;51.532;6.770;2023-04-24T01:14:07;6.13;;;3.72;;
21326;SDS011;10822;51.532;6.770;2023-04-24T01:16:33;5.50;;;3.53;;
21326;SDS011;10822;51.532;6.770;2023-04-24T01:19:00;6.00;;;4.20;;
21326;SDS011;10822;51.532;6.770;2023-04-24T01:21:26;7.63;;;4.30;;
21326;SDS011;10822;51.532;6.770;2023-04-24T01:23:52;5.97;;;4.03;;
21326;SDS011;10822;51.532;6.770;2023-04-24T01:26:19;7.03;;;4.45;;
21326;SDS011;10822;51.532;6.770;2023-04-24T01:28:45;8.75;;;4.78;;
21326;SDS011;10822;51.532;6.770;2023-04-24T01:31:11;7.20;;;4.85;;
21326;SDS011;10822;51.532;6.770;2023-04-24T01:33:37;7.03;;;4.50;;
21326;SDS011;10822;51.532;6.770;2023-04-24T01:36:03;7.22;;;4.80;;
21326;SDS011;10822;51.532;6.770;2023-04-24T01:38:29;10.05;;;6.30;;
21326;SDS011;10822;51.532;6.770;2023-04-24T01:40:55;11.35;;;5.72;;
21326;SDS011;10822;51.532;6.770;2023-04-24T01:43:21;8.15;;;5.30;;
21326;SDS011;10822;51.532;6.770;2023-04-24T01:45:47;9.52;;;5.18;;
21326;SDS011;10822;51.532;6.770;2023-04-24T01:48:13;6.82;;;4.45;;
21326;SDS011;10822;51.532;6.770;2023-04-24T01:50:39;6.88;;;4.43;;
21326;SDS011;10822;51.532;6.770;2023-04-24T01:53:05;7.03;;;4.72;;
21326;SDS011;10822;51.532;6.770;2023-04-24T01:55:31;9.13;;;5.10;;
21326;SDS011;10822;51.532;6.770;2023-04-24T01:57:57;9.10;;;5.22;;
21326;SDS011;10822;51.532;6.770;2023-04-24T02:00:25;8.13;;;5.38;;
21326;SDS011;10822;51.532;6.770;2023-04-24T02:02:51;10.07;;;5.68;;
21326;SDS011;10822;51.532;6.770;2023-04-24T02:05:17;6.82;;;4.88;;
21326;SDS011;10822;51.532;6.770;2023-04-24T02:07:43;7.43;;;4.28;;
21326;SDS011;10822;51.532;6.770;2023-04-24T02:10:09;7.18;;;4.40;;
21326;SDS011;10822;51.532;6.770;2023-04-24T02:12:35;7.88;;;5.07;;
21326;SDS011;10822;51.532;6.770;2023-04-24T02:15:01;9.45;;;5.63;;
21326;SDS011;10822;51.532;6.770;2023-04-24T02:17:27;12.40;;;5.03;;
21326;SDS011;10822;51.532;6.770;2023-04-24T02:19:53;9.77;;;5.55;;
21326;SDS011;10822;51.532;6.770;2023-04-24T02:22:19;7.57;;;5.47;;
21326;SDS011;10822;51.532;6.770;2023-04-24T02:24:45;8.40;;;5.88;;
21326;SDS011;10822;51.532;6.770;2023-04-24T02:27:11;8.60;;;6.10;;
21326;SDS011;10822;51.532;6.770;2023-04-24T02:29:37;11.77;;;6.53;;
21326;SDS011;10822;51.532;6.770;2023-04-24T02:32:03;10.45;;;6.43;;
21326;SDS011;10822;51.532;6.770;2023-04-24T02:34:29;11.70;;;6.88;;
21326;SDS011;10822;51.532;6.770;2023-04-24T02:36:55;12.85;;;6.78;;
21326;SDS011;10822;51.532;6.770;2023-04-24T02:39:21;10.65;;;6.97;;
21326;SDS011;10822;51.532;6.770;2023-04-24T02:41:47;12.18;;;7.63;;
21326;SDS011;10822;51.532;6.770;2023-04-24T02:44:13;10.57;;;7.10;;
21326;SDS011;10822;51.532;6.770;2023-04-24T02:46:39;11.35;;;7.60;;
21326;SDS011;10822;51.532;6.770;2023-04-24T02:49:06;13.48;;;8.35;;
21326;SDS011;10822;51.532;6.770;2023-04-24T02:51:32;13.88;;;8.63;;
21326;SDS011;10822;51.532;6.770;2023-04-24T02:53:58;17.52;;;10.43;;
21326;SDS011;10822;51.532;6.770;2023-04-24T02:56:24;17.02;;;9.70;;
21326;SDS011;10822;51.532;6.770;2023-04-24T02:58:50;17.50;;;10.63;;
21326;SDS011;10822;51.532;6.770;2023-04-24T03:01:16;18.83;;;10.30;;
21326;SDS011;10822;51.532;6.770;2023-04-24T03:03:42;15.85;;;9.88;;
21326;SDS011;10822;51.532;6.770;2023-04-24T03:06:08;17.38;;;9.80;;
21326;SDS011;10822;51.532;6.770;2023-04-24T03:08:45;15.93;;;9.77;;
21326;SDS011;10822;51.532;6.770;2023-04-24T03:11:14;17.33;;;9.70;;
21326;SDS011;10822;51.532;6.770;2023-04-24T03:13:40;19.10;;;9.00;;
21326;SDS011;10822;51.532;6.770;2023-04-24T03:16:06;15.00;;;8.90;;
21326;SDS011;10822;51.532;6.770;2023-04-24T03:18:32;16.63;;;9.20;;
21326;SDS011;10822;51.532;6.770;2023-04-24T03:20:58;13.05;;;8.60;;
21326;SDS011;10822;51.532;6.770;2023-04-24T03:23:24;15.02;;;9.55;;
21326;SDS011;10822;51.532;6.770;2023-04-24T03:25:50;15.65;;;9.50;;
21326;SDS011;10822;51.532;6.770;2023-04-24T03:28:16;14.68;;;9.60;;
21326;SDS011;10822;51.532;6.770;2023-04-24T03:30:42;19.00;;;9.43;;
21326;SDS011;10822;51.532;6.770;2023-04-24T03:33:08;12.82;;;8.32;;
21326;SDS011;10822;51.532;6.770;2023-04-24T03:35:34;14.15;;;9.00;;
21326;SDS011;10822;51.532;6.770;2023-04-24T03:38:01;18.08;;;9.93;;
21326;SDS011;10822;51.532;6.770;2023-04-24T03:40:29;15.95;;;9.48;;
21326;SDS011;10822;51.532;6.770;2023-04-24T03:42:55;15.00;;;9.50;;
21326;SDS011;10822;51.532;6.770;2023-04-24T03:45:21;17.50;;;9.40;;
21326;SDS011;10822;51.532;6.770;2023-04-24T03:47:47;18.33;;;10.65;;
21326;SDS011;10822;51.532;6.770;2023-04-24T03:50:13;21.63;;;10.68;;
21326;SDS011;10822;51.532;6.770;2023-04-24T03:52:39;16.77;;;10.52;;
21326;SDS011;10822;51.532;6.770;2023-04-24T03:55:05;20.98;;;9.70;;
21326;SDS011;10822;51.532;6.770;2023-04-24T03:57:32;16.73;;;9.82;;
21326;SDS011;10822;51.532;6.770;2023-04-24T03:59:57;19.77;;;10.70;;
21326;SDS011;10822;51.532;6.770;2023-04-24T04:02:23;15.52;;;10.35;;
21326;SDS011;10822;51.532;6.770;2023-04-24T04:04:49;18.25;;;9.90;;
21326;SDS011;10822;51.532;6.770;2023-04-24T04:07:16;19.52;;;10.30;;
21326;SDS011;10822;51.532;6.770;2023-04-24T04:09:42;19.17;;;10.20;;
21326;SDS011;10822;51.532;6.770;2023-04-24T04:12:08;19.50;;;10.23;;
21326;SDS011;10822;51.532;6.770;2023-04-24T04:14:34;17.75;;;10.00;;
21326;SDS011;10822;51.532;6.770;2023-04-24T04:17:00;15.82;;;8.95;;
21326;SDS011;10822;51.532;6.770;2023-04-24T04:19:26;15.15;;;8.48;;
21326;SDS011;10822;51.532;6.770;2023-04-24T04:21:52;15.32;;;9.35;;
21326;SDS011;10822;51.532;6.770;2023-04-24T04:24:21;15.13;;;8.65;;
21326;SDS011;10822;51.532;6.770;2023-04-24T04:26:47;15.82;;;9.10;;
21326;SDS011;10822;51.532;6.770;2023-04-24T04:29:16;15.18;;;8.68;;
21326;SDS011;10822;51.532;6.770;2023-04-24T04:31:43;14.07;;;8.52;;
21326;SDS011;10822;51.532;6.770;2023-04-24T04:34:09;14.23;;;8.68;;
21326;SDS011;10822;51.532;6.770;2023-04-24T04:36:36;15.38;;;9.07;;
21326;SDS011;10822;51.532;6.770;2023-04-24T04:39:05;18.30;;;9.20;;
21326;SDS011;10822;51.532;6.770;2023-04-24T04:41:31;15.10;;;8.95;;
21326;SDS011;10822;51.532;6.770;2023-04-24T04:44:00;13.20;;;8.50;;
21326;SDS011;10822;51.532;6.770;2023-04-24T04:46:31;13.05;;;8.18;;
21326;SDS011;10822;51.532;6.770;2023-04-24T04:48:59;13.82;;;8.65;;
21326;SDS011;10822;51.532;6.770;2023-04-24T04:51:25;14.57;;;7.95;;
21326;SDS011;10822;51.532;6.770;2023-04-24T04:53:51;12.90;;;8.00;;
21326;SDS011;10822;51.532;6.770;2023-04-24T04:56:17;15.55;;;8.00;;
21326;SDS011;10822;51.532;6.770;2023-04-24T04:58:46;15.77;;;7.38;;
21326;SDS011;10822;51.532;6.770;2023-04-24T05:01:12;10.48;;;7.38;;
21326;SDS011;10822;51.532;6.770;2023-04-24T05:03:38;12.00;;;7.20;;
21326;SDS011;10822;51.532;6.770;2023-04-24T05:06:05;14.02;;;7.90;;
21326;SDS011;10822;51.532;6.770;2023-04-24T05:08:31;13.30;;;7.63;;
21326;SDS011;10822;51.532;6.770;2023-04-24T05:10:59;14.55;;;8.35;;
21326;SDS011;10822;51.532;6.770;2023-04-24T05:13:40;13.88;;;8.25;;
21326;SDS011;10822;51.532;6.770;2023-04-24T05:16:06;18.00;;;9.23;;
21326;SDS011;10822;51.532;6.770;2023-04-24T05:18:35;15.25;;;8.13;;
21326;SDS011;10822;51.532;6.770;2023-04-24T05:21:01;12.77;;;7.25;;
21326;SDS011;10822;51.532;6.770;2023-04-24T05:23:27;13.82;;;6.95;;
21326;SDS011;10822;51.532;6.770;2023-04-24T05:25:59;10.55;;;6.20;;
21326;SDS011;10822;51.532;6.770;2023-04-24T05:28:25;12.10;;;5.82;;
21326;SDS011;10822;51.532;6.770;2023-04-24T05:30:54;9.32;;;6.50;;
21326;SDS011;10822;51.532;6.770;2023-04-24T05:33:20;9.45;;;6.50;;
21326;SDS011;10822;51.532;6.770;2023-04-24T05:36:06;10.27;;;6.05;;
21326;SDS011;10822;51.532;6.770;2023-04-24T05:38:32;8.00;;;5.78;;
21326;SDS011;10822;51.532;6.770;2023-04-24T05:40:58;10.68;;;7.00;;
21326;SDS011;10822;51.532;6.770;2023-04-24T05:43:24;9.90;;;6.72;;
21326;SDS011;10822;51.532;6.770;2023-04-24T05:45:50;9.95;;;6.25;;
21326;SDS011;10822;51.532;6.770;2023-04-24T05:48:18;12.98;;;6.32;;
21326;SDS011;10822;51.532;6.770;2023-04-24T05:50:44;8.57;;;6.28;;
21326;SDS011;10822;51.532;6.770;2023-04-24T05:53:12;10.85;;;6.22;;
21326;SDS011;10822;51.532;6.770;2023-04-24T05:55:46;9.93;;;6.95;;
21326;SDS011;10822;51.532;6.770;2023-04-24T05:58:12;10.93;;;6.78;;
21326;SDS011;10822;51.532;6.770;2023-04-24T06:00:39;10.77;;;7.75;;
21326;SDS011;10822;51.532;6.770;2023-04-24T06:03:07;9.90;;;6.93;;
21326;SDS011;10822;51.532;6.770;2023-04-24T06:05:33;10.25;;;6.63;;
21326;SDS011;10822;51.532;6.770;2023-04-24T06:08:01;10.93;;;7.10;;
21326;SDS011;10822;51.532;6.770;2023-04-24T06:10:27;12.45;;;7.70;;
21326;SDS011;10822;51.532;6.770;2023-04-24T06:12:53;13.00;;;8.00;;
21326;SDS011;10822;51.532;6.770;2023-04-24T06:15:21;10.48;;;7.10;;
21326;SDS011;10822;51.532;6.770;2023-04-24T06:17:47;11.45;;;6.80;;
21326;SDS011;10822;51.532;6.770;2023-04-24T06:20:13;12.30;;;7.57;;
21326;SDS011;10822;51.532;6.770;2023-04-24T06:22:39;12.63;;;7.65;;
21326;SDS011;10822;51.532;6.770;2023-04-24T06:25:08;11.43;;;7.32;;
21326;SDS011;10822;51.532;6.770;2023-04-24T06:27:34;11.02;;;7.72;;
21326;SDS011;10822;51.532;6.770;2023-04-24T06:30:00;10.18;;;7.40;;
21326;SDS011;10822;51.532;6.770;2023-04-24T06:32:32;9.65;;;7.40;;
21326;SDS011;10822;51.532;6.770;2023-04-24T06:34:58;10.20;;;7.43;;
21326;SDS011;10822;51.532;6.770;2023-04-24T06:37:24;10.20;;;7.13;;
21326;SDS011;10822;51.532;6.770;2023-04-24T06:39:50;9.15;;;6.45;;
21326;SDS011;10822;51.532;6.770;2023-04-24T06:42:16;8.45;;;6.80;;
21326;SDS011;10822;51.532;6.770;2023-04-24T06:44:44;9.20;;;6.47;;
21326;SDS011;10822;51.532;6.770;2023-04-24T06:47:10;7.97;;;6.05;;
21326;SDS011;10822;51.532;6.770;2023-04-24T06:49:39;7.85;;;5.28;;
21326;SDS011;10822;51.532;6.770;2023-04-24T06:52:05;8.15;;;5.60;;
21326;SDS011;10822;51.532;6.770;2023-04-24T06:54:31;9.38;;;5.82;;
21326;SDS011;10822;51.532;6.770;2023-04-24T06:57:00;7.63;;;5.25;;
21326;SDS011;10822;51.532;6.770;2023-04-24T06:59:30;7.95;;;5.63;;
21326;SDS011;10822;51.532;6.770;2023-04-24T07:01:59;12.70;;;6.80;;
21326;SDS011;10822;51.532;6.770;2023-04-24T07:04:29;11.98;;;6.85;;
21326;SDS011;10822;51.532;6.770;2023-04-24T07:06:56;6.60;;;4.65;;
21326;SDS011;10822;51.532;6.770;2023-04-24T07:09:23;6.88;;;4.50;;
21326;SDS011;10822;51.532;6.770;2023-04-24T07:11:50;5.10;;;3.63;;
21326;SDS011;10822;51.532;6.770;2023-04-24T07:14:16;5.55;;;4.05;;
21326;SDS011;10822;51.532;6.770;2023-04-24T07:16:42;6.72;;;4.03;;
21326;SDS011;10822;51.532;6.770;2023-04-24T07:19:10;5.40;;;4.07;;
21326;SDS011;10822;51.532;6.770;2023-04-24T07:21:36;3.92;;;3.17;;
21326;SDS011;10822;51.532;6.770;2023-04-24T07:24:02;3.88;;;2.60;;
21326;SDS011;10822;51.532;6.770;2023-04-24T07:26:29;4.75;;;2.72;;
21326;SDS011;10822;51.532;6.770;2023-04-24T07:28:55;4.93;;;2.58;;
21326;SDS011;10822;51.532;6.770;2023-04-24T07:31:21;3.78;;;2.35;;
21326;SDS011;10822;51.532;6.770;2023-04-24T07:33:48;4.22;;;2.00;;
21326;SDS011;10822;51.532;6.770;2023-04-24T07:36:14;1.90;;;1.60;;
21326;SDS011;10822;51.532;6.770;2023-04-24T07:38:43;2.58;;;1.48;;
21326;SDS011;10822;51.532;6.770;2023-04-24T07:41:09;1.83;;;1.58;;
21326;SDS011;10822;51.532;6.770;2023-04-24T07:43:36;2.10;;;1.50;;
21326;SDS011;10822;51.532;6.770;2023-04-24T07:46:02;2.65;;;1.45;;
21326;SDS011;10822;51.532;6.770;2023-04-24T07:48:28;2.25;;;1.35;;
21326;SDS011;10822;51.532;6.770;2023-04-24T07:50:54;2.95;;;1.10;;
21326;SDS011;10822;51.532;6.770;2023-04-24T07:53:20;3.40;;;1.42;;
21326;SDS011;10822;51.532;6.770;2023-04-24T07:55:46;3.00;;;1.30;;
21326;SDS011;10822;51.532;6.770;2023-04-24T07:58:12;1.73;;;1.20;;
21326;SDS011;10822;51.532;6.770;2023-04-24T08:00:38;2.53;;;1.20;;
21326;SDS011;10822;51.532;6.770;2023-04-24T08:03:04;3.13;;;1.50;;
21326;SDS011;10822;51.532;6.770;2023-04-24T08:05:30;3.08;;;1.48;;
21326;SDS011;10822;51.532;6.770;2023-04-24T08:07:56;1.40;;;1.13;;
21326;SDS011;10822;51.532;6.770;2023-04-24T08:10:22;1.65;;;1.17;;
21326;SDS011;10822;51.532;6.770;2023-04-24T08:12:48;1.73;;;1.30;;
21326;SDS011;10822;51.532;6.770;2023-04-24T08:15:15;2.25;;;1.33;;
21326;SDS011;10822;51.532;6.770;2023-04-24T08:17:41;2.65;;;1.60;;
21326;SDS011;10822;51.532;6.770;2023-04-24T08:20:07;2.53;;;1.80;;
21326;SDS011;10822;51.532;6.770;2023-04-24T08:22:38;3.72;;;1.50;;
21326;SDS011;10822;51.532;6.770;2023-04-24T08:25:04;2.53;;;1.58;;
21326;SDS011;10822;51.532;6.770;2023-04-24T08:27:30;1.58;;;1.30;;
21326;SDS011;10822;51.532;6.770;2023-04-24T08:29:56;2.47;;;1.30;;
21326;SDS011;10822;51.532;6.770;2023-04-24T08:32:23;2.30;;;1.50;;
21326;SDS011;10822;51.532;6.770;2023-04-24T08:34:50;2.42;;;1.67;;
21326;SDS011;10822;51.532;6.770;2023-04-24T08:37:17;2.65;;;1.55;;
21326;SDS011;10822;51.532;6.770;2023-04-24T08:39:43;1.50;;;1.38;;
21326;SDS011;10822;51.532;6.770;2023-04-24T08:42:09;1.48;;;1.27;;
21326;SDS011;10822;51.532;6.770;2023-04-24T08:44:37;1.50;;;1.27;;
21326;SDS011;10822;51.532;6.770;2023-04-24T08:47:03;1.30;;;1.02;;
21326;SDS011;10822;51.532;6.770;2023-04-24T08:49:29;1.23;;;0.95;;
21326;SDS011;10822;51.532;6.770;2023-04-24T08:51:55;1.10;;;1.00;;
21326;SDS011;10822;51.532;6.770;2023-04-24T08:54:22;0.98;;;0.80;;
21326;SDS011;10822;51.532;6.770;2023-04-24T08:56:48;1.10;;;0.95;;
21326;SDS011;10822;51.532;6.770;2023-04-24T08:59:14;1.42;;;0.88;;
21326;SDS011;10822;51.532;6.770;2023-04-24T09:01:41;2.10;;;0.90;;
21326;SDS011;10822;51.532;6.770;2023-04-24T09:04:08;2.00;;;1.10;;
21326;SDS011;10822;51.532;6.770;2023-04-24T09:06:37;1.85;;;1.00;;
21326;SDS011;10822;51.532;6.770;2023-04-24T09:09:03;1.70;;;1.30;;
21326;SDS011;10822;51.532;6.770;2023-04-24T09:11:30;1.90;;;1.25;;
21326;SDS011;10822;51.532;6.770;2023-04-24T09:13:57;2.30;;;1.80;;
21326;SDS011;10822;51.532;6.770;2023-04-24T09:16:23;4.53;;;2.78;;
21326;SDS011;10822;51.532;6.770;2023-04-24T09:18:50;6.80;;;3.72;;
21326;SDS011;10822;51.532;6.770;2023-04-24T09:21:16;4.38;;;3.58;;
21326;SDS011;10822;51.532;6.770;2023-04-24T09:23:42;5.13;;;4.22;;
21326;SDS011;10822;51.532;6.770;2023-04-24T09:26:09;5.88;;;3.90;;
21326;SDS011;10822;51.532;6.770;2023-04-24T09:28:37;5.25;;;3.60;;
21326;SDS011;10822;51.532;6.770;2023-04-24T09:31:08;6.03;;;4.60;;
21326;SDS011;10822;51.532;6.770;2023-04-24T09:33:35;5.95;;;4.72;;
21326;SDS011;10822;51.532;6.770;2023-04-24T09:36:02;7.75;;;4.80;;
21326;SDS011;10822;51.532;6.770;2023-04-24T09:38:37;4.65;;;3.90;;
21326;SDS011;10822;51.532;6.770;2023-04-24T09:41:07;5.10;;;4.13;;
21326;SDS011;10822;51.532;6.770;2023-04-24T09:43:33;6.85;;;5.10;;
21326;SDS011;10822;51.532;6.770;2023-04-24T09:46:03;5.82;;;4.57;;
21326;SDS011;10822;51.532;6.770;2023-04-24T09:48:30;6.50;;;4.97;;
21326;SDS011;10822;51.532;6.770;2023-04-24T09:50:56;7.75;;;5.55;;
21326;SDS011;10822;51.532;6.770;2023-04-24T09:53:24;8.15;;;5.50;;
21326;SDS011;10822;51.532;6.770;2023-04-24T09:55:50;11.45;;;5.75;;
21326;SDS011;10822;51.532;6.770;2023-04-24T09:58:18;7.15;;;5.30;;
21326;SDS011;10822;51.532;6.770;2023-04-24T10:00:44;7.65;;;5.22;;
21326;SDS011;10822;51.532;6.770;2023-04-24T10:03:11;9.35;;;5.95;;
21326;SDS011;10822;51.532;6.770;2023-04-24T10:05:37;8.90;;;5.38;;
21326;SDS011;10822;51.532;6.770;2023-04-24T10:10:30;8.80;;;6.10;;
21326;SDS011;10822;51.532;6.770;2023-04-24T10:12:56;8.65;;;5.68;;
21326;SDS011;10822;51.532;6.770;2023-04-24T10:15:22;7.03;;;5.40;;
21326;SDS011;10822;51.532;6.770;2023-04-24T10:17:49;7.03;;;4.63;;
21326;SDS011;10822;51.532;6.770;2023-04-24T10:20:17;6.68;;;4.22;;
21326;SDS011;10822;51.532;6.770;2023-04-24T10:22:44;6.90;;;3.70;;
21326;SDS011;10822;51.532;6.770;2023-04-24T10:25:13;6.38;;;3.78;;
21326;SDS011;10822;51.532;6.770;2023-04-24T10:27:39;8.48;;;4.15;;
21326;SDS011;10822;51.532;6.770;2023-04-24T10:30:05;8.35;;;3.88;;
21326;SDS011;10822;51.532;6.770;2023-04-24T10:32:31;9.10;;;3.50;;
21326;SDS011;10822;51.532;6.770;2023-04-24T10:34:57;10.13;;;3.70;;
21326;SDS011;10822;51.532;6.770;2023-04-24T10:37:23;9.05;;;3.85;;
21326;SDS011;10822;51.532;6.770;2023-04-24T10:39:50;7.03;;;3.55;;
21326;SDS011;10822;51.532;6.770;2023-04-24T10:42:19;9.35;;;3.40;;
21326;SDS011;10822;51.532;6.770;2023-04-24T10:44:47;10.02;;;3.90;;
21326;SDS011;10822;51.532;6.770;2023-04-24T10:47:14;9.10;;;4.13;;
21326;SDS011;10822;51.532;6.770;2023-04-24T10:49:40;9.50;;;4.50;;
21326;SDS011;10822;51.532;6.770;2023-04-24T10:52:06;8.95;;;3.67;;
21326;SDS011;10822;51.532;6.770;2023-04-24T10:59:48;8.43;;;4.85;;
21326;SDS011;10822;51.532;6.770;2023-04-24T11:02:15;9.93;;;3.80;;
21326;SDS011;10822;51.532;6.770;2023-04-24T11:04:41;10.38;;;3.80;;
21326;SDS011;10822;51.532;6.770;2023-04-24T11:07:08;10.60;;;3.90;;
21326;SDS011;10822;51.532;6.770;2023-04-24T11:09:34;12.75;;;5.20;;
21326;SDS011;10822;51.532;6.770;2023-04-24T11:17:34;10.02;;;4.13;;
21326;SDS011;10822;51.532;6.770;2023-04-24T11:20:11;9.13;;;3.22;;
21326;SDS011;10822;51.532;6.770;2023-04-24T11:22:38;7.85;;;3.63;;
21326;SDS011;10822;51.532;6.770;2023-04-24T11:25:10;8.48;;;3.38;;
21326;SDS011;10822;51.532;6.770;2023-04-24T11:27:40;8.02;;;3.00;;
21326;SDS011;10822;51.532;6.770;2023-04-24T11:30:07;11.27;;;3.13;;
21326;SDS011;10822;51.532;6.770;2023-04-24T11:35:04;6.47;;;2.92;;
21326;SDS011;10822;51.532;6.770;2023-04-24T11:37:36;7.77;;;3.20;;
21326;SDS011;10822;51.532;6.770;2023-04-24T11:40:02;8.35;;;2.70;;
21326;SDS011;10822;51.532;6.770;2023-04-24T11:42:33;5.30;;;3.17;;
21326;SDS011;10822;51.532;6.770;2023-04-24T11:44:59;7.55;;;3.38;;
21326;SDS011;10822;51.532;6.770;2023-04-24T11:47:30;6.10;;;2.83;;
21326;SDS011;10822;51.532;6.770;2023-04-24T11:49:58;7.10;;;2.90;;
21326;SDS011;10822;51.532;6.770;2023-04-24T11:52:24;8.05;;;3.22;;
21326;SDS011;10822;51.532;6.770;2023-04-24T11:54:50;6.38;;;2.47;;
21326;SDS011;10822;51.532;6.770;2023-04-24T11:57:20;6.50;;;3.20;;
21326;SDS011;10822;51.532;6.770;2023-04-24T11:59:46;5.97;;;3.72;;
21326;SDS011;10822;51.532;6.770;2023-04-24T12:02:33;5.95;;;3.00;;
21326;SDS011;10822;51.532;6.770;2023-04-24T12:04:59;4.07;;;2.40;;
21326;SDS011;10822;51.532;6.770;2023-04-24T12:07:25;5.97;;;2.58;;
21326;SDS011;10822;51.532;6.770;2023-04-24T12:09:57;5.97;;;2.50;;
21326;SDS011;10822;51.532;6.770;2023-04-24T12:12:25;6.18;;;2.92;;
21326;SDS011;10822;51.532;6.770;2023-04-24T12:14:55;7.88;;;4.40;;
21326;SDS011;10822;51.532;6.770;2023-04-24T12:17:25;8.65;;;5.35;;
21326;SDS011;10822;51.532;6.770;2023-04-24T12:19:51;7.32;;;3.17;;
21326;SDS011;10822;51.532;6.770;2023-04-24T12:22:18;7.60;;;2.25;;
21326;SDS011;10822;51.532;6.770;2023-04-24T12:25:00;5.75;;;2.60;;
21326;SDS011;10822;51.532;6.770;2023-04-24T12:27:30;3.40;;;1.90;;
21326;SDS011;10822;51.532;6.770;2023-04-24T12:29:57;4.35;;;1.83;;
21326;SDS011;10822;51.532;6.770;2023-04-24T12:32:24;3.15;;;2.00;;
21326;SDS011;10822;51.532;6.770;2023-04-24T12:34:50;5.18;;;2.70;;
21326;SDS011;10822;51.532;6.770;2023-04-24T12:37:16;3.35;;;1.90;;
21326;SDS011;10822;51.532;6.770;2023-04-24T12:40:05;4.55;;;2.20;;
21326;SDS011;10822;51.532;6.770;2023-04-24T12:42:32;5.75;;;2.70;;
21326;SDS011;10822;51.532;6.770;2023-04-24T12:45:04;4.30;;;2.50;;
21326;SDS011;10822;51.532;6.770;2023-04-24T12:47:31;5.40;;;1.92;;
21326;SDS011;10822;51.532;6.770;2023-04-24T12:49:58;2.85;;;1.50;;
21326;SDS011;10822;51.532;6.770;2023-04-24T12:52:24;4.63;;;1.73;;
21326;SDS011;10822;51.532;6.770;2023-04-24T12:54:54;4.40;;;2.25;;
21326;SDS011;10822;51.532;6.770;2023-04-24T12:57:21;9.38;;;3.40;;
21326;SDS011;10822;51.532;6.770;2023-04-24T12:59:47;3.95;;;2.70;;
21326;SDS011;10822;51.532;6.770;2023-04-24T13:02:13;7.97;;;3.78;;
21326;SDS011;10822;51.532;6.770;2023-04-24T13:04:43;6.47;;;2.63;;
21326;SDS011;10822;51.532;6.770;2023-04-24T13:07:09;5.72;;;3.28;;
21326;SDS011;10822;51.532;6.770;2023-04-24T13:09:35;7.68;;;3.10;;
21326;SDS011;10822;51.532;6.770;2023-04-24T13:12:01;8.80;;;3.85;;
21326;SDS011;10822;51.532;6.770;2023-04-24T13:14:27;10.55;;;4.05;;
21326;SDS011;10822;51.532;6.770;2023-04-24T13:16:53;7.75;;;2.97;;
21326;SDS011;10822;51.532;6.770;2023-04-24T13:19:19;11.43;;;4.10;;
21326;SDS011;10822;51.532;6.770;2023-04-24T13:21:45;9.43;;;3.47;;
21326;SDS011;10822;51.532;6.770;2023-04-24T13:24:11;4.25;;;1.77;;
21326;SDS011;10822;51.532;6.770;2023-04-24T13:26:37;4.00;;;1.45;;
21326;SDS011;10822;51.532;6.770;2023-04-24T13:29:04;8.82;;;3.50;;
21326;SDS011;10822;51.532;6.770;2023-04-24T13:31:30;4.47;;;2.20;;
21326;SDS011;10822;51.532;6.770;2023-04-24T13:33:56;3.42;;;2.20;;
21326;SDS011;10822;51.532;6.770;2023-04-24T13:36:22;4.57;;;2.38;;
21326;SDS011;10822;51.532;6.770;2023-04-24T13:38:48;7.05;;;2.50;;
21326;SDS011;10822;51.532;6.770;2023-04-24T13:41:14;6.18;;;2.30;;
21326;SDS011;10822;51.532;6.770;2023-04-24T13:43:40;2.70;;;1.73;;
21326;SDS011;10822;51.532;6.770;2023-04-24T13:46:07;7.50;;;2.10;;
21326;SDS011;10822;51.532;6.770;2023-04-24T13:48:33;4.70;;;1.95;;
21326;SDS011;10822;51.532;6.770;2023-04-24T13:50:59;4.07;;;1.45;;
21326;SDS011;10822;51.532;6.770;2023-04-24T13:53:25;4.03;;;1.70;;
21326;SDS011;10822;51.532;6.770;2023-04-24T13:55:51;3.50;;;1.30;;
21326;SDS011;10822;51.532;6.770;2023-04-24T13:58:17;6.95;;;2.88;;
21326;SDS011;10822;51.532;6.770;2023-04-24T14:00:43;4.55;;;1.88;;
21326;SDS011;10822;51.532;6.770;2023-04-24T14:03:10;3.38;;;1.48;;
21326;SDS011;10822;51.532;6.770;2023-04-24T14:05:36;4.82;;;1.60;;
21326;SDS011;10822;51.532;6.770;2023-04-24T14:08:02;5.93;;;1.58;;
21326;SDS011;10822;51.532;6.770;2023-04-24T14:10:28;3.55;;;1.55;;
21326;SDS011;10822;51.532;6.770;2023-04-24T14:12:53;7.45;;;2.67;;
21326;SDS011;10822;51.532;6.770;2023-04-24T14:15:20;4.95;;;2.10;;
21326;SDS011;10822;51.532;6.770;2023-04-24T14:17:46;7.82;;;2.80;;
21326;SDS011;10822;51.532;6.770;2023-04-24T14:20:12;4.93;;;2.20;;
21326;SDS011;10822;51.532;6.770;2023-04-24T14:22:38;13.38;;;4.18;;
21326;SDS011;10822;51.532;6.770;2023-04-24T14:25:04;8.15;;;3.08;;
21326;SDS011;10822;51.532;6.770;2023-04-24T14:27:31;7.43;;;3.10;;
21326;SDS011;10822;51.532;6.770;2023-04-24T14:29:57;3.72;;;2.00;;
21326;SDS011;10822;51.532;6.770;2023-04-24T14:32:24;10.27;;;3.83;;
21326;SDS011;10822;51.532;6.770;2023-04-24T14:34:50;16.67;;;5.30;;
21326;SDS011;10822;51.532;6.770;2023-04-24T14:37:16;16.73;;;6.32;;
21326;SDS011;10822;51.532;6.770;2023-04-24T14:39:42;15.32;;;4.93;;
21326;SDS011;10822;51.532;6.770;2023-04-24T14:42:08;4.55;;;2.10;;
21326;SDS011;10822;51.532;6.770;2023-04-24T14:44:34;5.00;;;1.65;;
21326;SDS011;10822;51.532;6.770;2023-04-24T14:47:00;4.78;;;1.48;;
21326;SDS011;10822;51.532;6.770;2023-04-24T14:49:26;4.03;;;1.63;;
21326;SDS011;10822;51.532;6.770;2023-04-24T14:51:52;4.32;;;1.95;;
21326;SDS011;10822;51.532;6.770;2023-04-24T14:54:18;4.40;;;1.58;;
21326;SDS011;10822;51.532;6.770;2023-04-24T14:56:44;3.22;;;1.00;;